createdAt,value
2019-03-06T00:01:14.033Z,2.80
2019-03-06T00:03:44.359Z,2.73
2019-03-06T00:06:17.024Z,2.77
2019-03-06T00:08:47.573Z,3.00
2019-03-06T00:11:19.139Z,2.80
2019-03-06T00:13:50.567Z,3.00
2019-03-06T00:16:21.169Z,3.23
2019-03-06T00:18:51.672Z,2.90
2019-03-06T00:21:23.839Z,3.23
2019-03-06T00:23:54.687Z,3.63
2019-03-06T00:26:25.118Z,3.03
2019-03-06T00:28:55.449Z,3.47
2019-03-06T00:31:25.798Z,2.90
2019-03-06T00:33:56.120Z,3.30
2019-03-06T00:36:26.735Z,4.10
2019-03-06T00:38:57.082Z,3.33
2019-03-06T00:41:29.067Z,3.63
2019-03-06T00:43:59.602Z,4.17
2019-03-06T00:46:29.996Z,4.20
2019-03-06T00:49:00.382Z,4.47
2019-03-06T00:51:30.797Z,4.67
2019-03-06T00:54:01.149Z,3.50
2019-03-06T00:56:31.515Z,4.33
2019-03-06T00:59:01.811Z,3.80
2019-03-06T01:01:32.167Z,4.00
2019-03-06T01:04:02.436Z,3.50
2019-03-06T01:06:33.090Z,4.50
2019-03-06T01:09:04.045Z,4.03
2019-03-06T01:11:36.778Z,4.00
2019-03-06T01:14:07.153Z,3.97
2019-03-06T01:16:37.454Z,3.77
2019-03-06T01:19:07.818Z,4.10
2019-03-06T01:21:38.186Z,4.30
2019-03-06T01:24:08.497Z,4.20
2019-03-06T01:26:38.873Z,3.50
2019-03-06T01:29:09.395Z,4.23
2019-03-06T01:31:39.708Z,3.33
2019-03-06T01:34:17.620Z,3.57
2019-03-06T01:36:50.646Z,4.30
2019-03-06T01:39:22.646Z,4.17
2019-03-06T01:41:57.796Z,4.57
2019-03-06T01:44:29.718Z,3.60
2019-03-06T01:47:00.084Z,3.70
2019-03-06T01:49:30.465Z,3.30
2019-03-06T01:52:00.842Z,3.97
2019-03-06T01:54:31.193Z,4.13
2019-03-06T01:57:01.595Z,3.77
2019-03-06T01:59:32.226Z,4.50
2019-03-06T02:02:02.524Z,4.73
2019-03-06T02:04:33.682Z,4.70
2019-03-06T02:07:04.337Z,4.10
2019-03-06T02:09:34.636Z,4.50
2019-03-06T02:12:06.296Z,4.70
2019-03-06T02:14:36.644Z,4.50
2019-03-06T02:17:06.916Z,4.70
2019-03-06T02:19:37.368Z,4.53
2019-03-06T02:22:07.992Z,4.30
2019-03-06T02:24:38.364Z,4.43
2019-03-06T02:27:08.666Z,5.13
2019-03-06T02:29:39.025Z,4.77
2019-03-06T02:32:09.381Z,5.33
2019-03-06T02:34:39.672Z,5.13
2019-03-06T02:37:10.032Z,5.47
2019-03-06T02:39:40.339Z,5.00
2019-03-06T02:42:10.631Z,4.87
2019-03-06T02:44:41.018Z,5.33
2019-03-06T02:47:11.419Z,4.63
2019-03-06T02:49:41.776Z,5.33
2019-03-06T02:52:12.048Z,5.50
2019-03-06T02:54:42.418Z,6.03
2019-03-06T02:57:12.997Z,4.73
2019-03-06T02:59:47.525Z,5.30
2019-03-06T03:02:19.472Z,5.43
2019-03-06T03:04:52.542Z,5.30
2019-03-06T03:07:23.112Z,5.80
2019-03-06T03:09:53.404Z,5.43
2019-03-06T03:12:24.613Z,5.50
2019-03-06T03:14:55.030Z,5.83
2019-03-06T03:17:25.417Z,5.60
2019-03-06T03:19:55.775Z,5.97
2019-03-06T03:22:26.136Z,5.70
2019-03-06T03:24:57.570Z,6.27
2019-03-06T03:27:27.931Z,5.70
2019-03-06T03:29:58.213Z,5.83
2019-03-06T03:32:28.509Z,5.37
2019-03-06T03:34:58.893Z,5.63
2019-03-06T03:37:29.251Z,5.40
2019-03-06T03:39:59.589Z,5.77
2019-03-06T03:42:30.321Z,5.90
2019-03-06T03:45:00.609Z,4.60
2019-03-06T03:47:30.971Z,5.40
2019-03-06T03:50:01.321Z,5.97
2019-03-06T03:52:32.690Z,5.87
2019-03-06T03:55:03.136Z,5.80
2019-03-06T03:57:34.739Z,6.03
2019-03-06T04:00:16.601Z,5.27
2019-03-06T04:02:46.891Z,5.37
2019-03-06T04:05:17.161Z,5.80
2019-03-06T04:07:47.539Z,5.80
2019-03-06T04:10:17.889Z,6.13
2019-03-06T04:12:48.987Z,6.20
2019-03-06T04:15:20.312Z,5.87
2019-03-06T04:17:50.678Z,5.90
2019-03-06T04:20:21.987Z,6.63
2019-03-06T04:22:52.847Z,5.73
2019-03-06T04:25:23.129Z,4.97
2019-03-06T04:27:53.460Z,6.47
2019-03-06T04:30:23.737Z,5.67
2019-03-06T04:32:54.117Z,5.73
2019-03-06T04:35:24.465Z,4.97
2019-03-06T04:37:54.712Z,5.13
2019-03-06T04:40:25.655Z,5.57
2019-03-06T04:42:56.032Z,5.80
2019-03-06T04:45:26.326Z,5.60
2019-03-06T04:47:56.650Z,5.13
2019-03-06T04:50:27.277Z,5.00
2019-03-06T04:52:57.539Z,5.43
2019-03-06T04:55:27.877Z,5.83
2019-03-06T04:57:58.225Z,6.33
2019-03-06T05:00:28.499Z,5.83
2019-03-06T05:02:58.824Z,5.40
2019-03-06T05:05:29.048Z,5.47
2019-03-06T05:07:59.369Z,4.93
2019-03-06T05:10:30.682Z,5.80
2019-03-06T05:13:02.079Z,5.50
2019-03-06T05:15:32.362Z,5.73
2019-03-06T05:18:20.760Z,6.40
2019-03-06T05:20:51.036Z,5.83
2019-03-06T05:23:21.404Z,6.23
2019-03-06T05:25:51.792Z,6.10
2019-03-06T05:28:22.059Z,6.07
2019-03-06T05:30:52.335Z,5.50
2019-03-06T05:33:22.633Z,5.97
2019-03-06T05:36:14.128Z,6.23
2019-03-06T05:38:53.189Z,6.90
2019-03-06T05:41:23.547Z,5.87
2019-03-06T05:43:53.821Z,5.63
2019-03-06T05:46:24.188Z,6.10
2019-03-06T05:48:54.511Z,5.80
2019-03-06T05:51:25.137Z,6.57
2019-03-06T05:53:55.411Z,6.43
2019-03-06T05:56:25.781Z,6.47
2019-03-06T05:58:56.143Z,5.87
2019-03-06T06:01:26.466Z,6.87
2019-03-06T06:03:56.818Z,8.30
2019-03-06T06:06:27.184Z,7.00
2019-03-06T06:08:57.471Z,6.93
2019-03-06T06:11:27.828Z,6.20
2019-03-06T06:13:59.276Z,7.53
2019-03-06T06:16:29.619Z,6.33
2019-03-06T06:19:01.662Z,6.00
2019-03-06T06:21:33.583Z,6.17
2019-03-06T06:24:05.581Z,6.30
2019-03-06T06:26:35.852Z,6.60
2019-03-06T06:29:06.116Z,6.30
2019-03-06T06:31:36.396Z,6.47
2019-03-06T06:34:06.647Z,5.60
2019-03-06T06:36:36.986Z,6.00
2019-03-06T06:39:08.325Z,7.40
2019-03-06T06:41:38.679Z,6.67
2019-03-06T06:44:08.940Z,7.60
2019-03-06T06:46:39.280Z,7.63
2019-03-06T06:49:09.532Z,7.80
2019-03-06T06:51:54.858Z,8.10
2019-03-06T06:54:40.112Z,6.70
2019-03-06T06:57:25.471Z,7.33
2019-03-06T07:00:15.545Z,7.77
2019-03-06T07:03:25.609Z,7.50
2019-03-06T07:06:00.236Z,7.40
2019-03-06T07:08:32.227Z,7.00
2019-03-06T07:11:07.410Z,7.00
2019-03-06T07:13:39.419Z,7.03
2019-03-06T07:16:11.420Z,7.13
2019-03-06T07:18:59.545Z,6.50
2019-03-06T07:21:47.696Z,7.03
2019-03-06T07:24:35.984Z,7.17
2019-03-06T07:27:24.304Z,6.80
2019-03-06T07:30:02.070Z,7.23
2019-03-06T07:32:50.456Z,6.97
2019-03-06T07:36:02.586Z,6.90
2019-03-06T07:38:33.502Z,6.87
2019-03-06T07:41:14.214Z,7.70
2019-03-06T07:43:55.095Z,6.47
2019-03-06T07:46:43.285Z,7.20
2019-03-06T07:49:25.303Z,7.53
2019-03-06T07:52:12.616Z,7.63
2019-03-06T07:54:47.171Z,7.83
2019-03-06T07:57:19.107Z,7.27
2019-03-06T07:59:49.443Z,8.03
2019-03-06T08:02:32.130Z,8.57
2019-03-06T08:05:14.401Z,7.57
2019-03-06T08:07:56.970Z,8.30
2019-03-06T08:10:28.975Z,7.47
2019-03-06T08:13:18.863Z,8.10
2019-03-06T08:15:53.770Z,8.30
2019-03-06T08:18:41.979Z,8.10
2019-03-06T08:21:20.919Z,8.33
2019-03-06T08:23:52.927Z,9.77
2019-03-06T08:26:23.192Z,9.60
2019-03-06T08:28:53.470Z,8.50
2019-03-06T08:31:25.372Z,8.57
2019-03-06T08:33:55.659Z,8.97
2019-03-06T08:36:25.996Z,8.03
2019-03-06T08:38:56.277Z,9.60
2019-03-06T08:41:26.607Z,9.80
2019-03-06T08:43:56.957Z,9.03
2019-03-06T08:46:43.928Z,9.60
2019-03-06T08:49:24.924Z,9.70
2019-03-06T08:51:56.949Z,9.23
2019-03-06T08:54:31.657Z,9.20
2019-03-06T08:57:03.579Z,9.10
2019-03-06T08:59:38.234Z,8.80
2019-03-06T09:02:25.994Z,9.57
2019-03-06T09:05:14.018Z,10.27
2019-03-06T09:08:02.287Z,10.60
2019-03-06T09:10:37.490Z,10.10
2019-03-06T09:13:12.764Z,9.40
2019-03-06T09:15:50.941Z,9.43
2019-03-06T09:18:24.001Z,9.13
2019-03-06T09:20:58.717Z,10.20
2019-03-06T09:23:30.730Z,9.47
2019-03-06T09:26:22.040Z,10.57
2019-03-06T09:29:01.140Z,10.23
2019-03-06T09:31:41.286Z,10.50
2019-03-06T09:34:16.490Z,10.10
2019-03-06T09:37:07.664Z,10.97
2019-03-06T09:39:57.750Z,11.33
2019-03-06T09:42:29.859Z,10.93
2019-03-06T09:45:01.852Z,11.17
2019-03-06T09:47:44.298Z,11.50
2019-03-06T09:50:26.264Z,11.67
2019-03-06T09:53:14.380Z,12.70
2019-03-06T09:55:58.589Z,12.73
2019-03-06T09:58:33.694Z,13.27
2019-03-06T10:01:08.763Z,12.93
2019-03-06T10:03:52.757Z,13.03
2019-03-06T10:06:40.974Z,13.83
2019-03-06T10:09:29.356Z,14.57
2019-03-06T10:12:01.336Z,14.63
2019-03-06T10:14:48.191Z,13.90
2019-03-06T10:17:23.178Z,14.63
2019-03-06T10:19:55.194Z,15.37
2019-03-06T10:30:15.185Z,13.53
2019-03-06T10:32:46.479Z,12.43
2019-03-06T10:35:16.929Z,12.87
2019-03-06T10:37:49.143Z,11.57
2019-03-06T15:31:46.624Z,10.20
2019-03-06T15:35:05.622Z,10.30
2019-03-06T16:10:54.275Z,7.50
2019-03-06T16:27:22.000Z,8.33
2019-03-06T16:29:53.240Z,8.47
2019-03-06T16:40:46.540Z,11.33
2019-03-06T16:43:16.891Z,11.83
2019-03-06T16:50:14.385Z,8.07
2019-03-06T17:01:31.145Z,8.57
2019-03-06T17:15:42.761Z,6.73
2019-03-06T17:29:16.430Z,8.03
2019-03-06T17:31:46.847Z,8.80
2019-03-06T17:34:18.445Z,9.97
2019-03-06T17:36:49.859Z,10.07
2019-03-06T17:39:21.261Z,10.40
2019-03-06T17:41:51.591Z,10.53
2019-03-06T17:44:21.978Z,11.77
2019-03-06T17:46:52.509Z,8.60
2019-03-06T17:49:22.858Z,9.50
2019-03-06T17:51:53.223Z,8.40
2019-03-06T17:54:23.491Z,9.80
2019-03-06T17:56:53.841Z,10.07
2019-03-06T17:59:24.176Z,10.10
2019-03-06T18:01:55.703Z,8.13
2019-03-06T18:04:26.036Z,8.77
2019-03-06T18:06:56.444Z,8.90
2019-03-06T18:09:26.699Z,9.80
2019-03-06T18:11:57.054Z,9.27
2019-03-06T18:14:27.580Z,10.17
2019-03-06T18:16:57.981Z,8.83
2019-03-06T18:19:28.304Z,7.80
2019-03-06T18:21:58.678Z,7.97
2019-03-06T18:24:29.614Z,8.13
2019-03-06T18:27:00.234Z,7.77
2019-03-06T18:29:32.316Z,8.47
2019-03-06T18:32:02.655Z,8.20
2019-03-06T18:34:32.954Z,8.07
2019-03-06T18:37:03.300Z,8.67
2019-03-06T18:39:33.644Z,8.07
2019-03-06T18:42:04.103Z,8.07
2019-03-06T18:44:34.383Z,8.00
2019-03-06T18:47:05.611Z,8.70
2019-03-06T18:49:35.985Z,9.90
2019-03-06T18:52:06.260Z,10.50
2019-03-06T18:54:36.622Z,12.70
2019-03-06T18:57:06.991Z,11.87
2019-03-06T18:59:37.359Z,11.90
2019-03-06T19:02:07.685Z,11.83
2019-03-06T19:04:37.994Z,11.53
2019-03-06T19:07:08.592Z,12.87
2019-03-06T19:09:40.532Z,11.77
2019-03-06T19:12:12.406Z,12.83
2019-03-06T19:14:42.692Z,11.33
2019-03-06T19:17:14.063Z,11.17
2019-03-06T19:19:44.413Z,10.63
2019-03-06T19:22:14.747Z,10.93
2019-03-06T19:24:46.184Z,10.43
2019-03-06T19:27:16.515Z,9.37
2019-03-06T19:29:46.883Z,9.97
2019-03-06T19:32:17.184Z,8.50
2019-03-06T19:34:49.113Z,9.43
2019-03-06T19:37:19.409Z,10.10
2019-03-06T19:39:51.405Z,10.13
2019-03-06T19:42:21.752Z,8.73
2019-03-06T19:44:52.098Z,10.00
2019-03-06T19:47:23.172Z,8.67
2019-03-06T19:50:39.331Z,8.73
2019-03-06T19:53:09.768Z,9.53
2019-03-06T19:55:42.263Z,9.43
2019-03-06T19:58:51.432Z,8.17
2019-03-06T20:01:23.145Z,10.60
2019-03-06T20:03:53.496Z,9.50
2019-03-06T20:06:27.119Z,8.47
2019-03-06T20:08:55.841Z,9.43
2019-03-06T20:11:26.192Z,9.63
2019-03-06T20:13:56.839Z,10.70
2019-03-06T20:16:27.103Z,10.80
2019-03-06T20:18:57.384Z,9.77
2019-03-06T20:21:28.706Z,9.33
2019-03-06T20:23:59.024Z,9.10
2019-03-06T20:26:29.563Z,9.30
2019-03-06T20:29:00.137Z,9.57
2019-03-06T20:31:30.535Z,9.80
2019-03-06T20:34:00.881Z,9.80
2019-03-06T20:36:32.344Z,9.20
2019-03-06T20:39:04.026Z,10.53
2019-03-06T20:41:35.892Z,9.63
2019-03-06T20:44:08.306Z,9.03
2019-03-06T20:46:39.705Z,10.10
2019-03-06T20:53:28.935Z,9.63
2019-03-06T20:55:59.277Z,10.20
2019-03-06T20:58:37.457Z,10.07
2019-03-06T21:09:09.476Z,9.17
2019-03-06T21:15:39.947Z,8.90
2019-03-06T21:34:43.761Z,9.00
2019-03-06T21:37:14.074Z,9.10
2019-03-06T21:39:44.339Z,7.37
2019-03-06T21:42:14.791Z,9.83
2019-03-06T21:44:45.064Z,8.73
2019-03-06T21:47:15.907Z,7.63
2019-03-06T21:49:46.716Z,9.13
2019-03-06T21:52:17.038Z,8.40
2019-03-06T21:54:47.471Z,8.17
2019-03-06T21:57:17.798Z,7.83
2019-03-06T21:59:48.203Z,8.40
2019-03-06T22:02:23.856Z,8.40
2019-03-06T22:04:54.233Z,8.40
2019-03-06T22:07:24.750Z,8.40
2019-03-06T22:10:09.985Z,7.77
2019-03-06T22:12:47.590Z,6.83
2019-03-06T22:15:22.986Z,8.77
2019-03-06T22:17:54.526Z,7.47
2019-03-06T22:20:25.161Z,8.20
2019-03-06T22:22:55.461Z,8.10
2019-03-06T22:25:26.576Z,8.07
2019-03-06T22:27:56.962Z,7.20
2019-03-06T22:30:27.281Z,7.90
2019-03-06T22:33:25.165Z,7.93
2019-03-06T22:35:55.348Z,7.77
2019-03-06T22:38:25.641Z,8.07
2019-03-06T22:40:56.025Z,7.67
2019-03-06T22:43:26.602Z,7.30
2019-03-06T22:45:56.871Z,7.87
2019-03-06T22:48:27.930Z,8.20
2019-03-06T22:50:58.613Z,7.23
2019-03-06T22:53:29.176Z,7.50
2019-03-06T22:56:01.725Z,8.37
2019-03-06T22:58:32.165Z,7.40
2019-03-06T23:01:06.351Z,7.60
2019-03-06T23:07:37.970Z,7.53
2019-03-06T23:10:08.843Z,8.87
2019-03-06T23:12:39.675Z,7.87
2019-03-06T23:15:13.766Z,8.57
2019-03-06T23:17:45.786Z,8.00
2019-03-06T23:20:16.629Z,8.57
2019-03-06T23:22:46.918Z,8.27
2019-03-06T23:25:18.211Z,8.37
2019-03-06T23:31:29.880Z,7.67
2019-03-06T23:34:00.483Z,7.97
2019-03-06T23:36:30.802Z,9.07
2019-03-06T23:39:01.075Z,8.50
2019-03-06T23:41:33.227Z,8.20
2019-03-06T23:44:03.862Z,8.37
2019-03-06T23:47:47.907Z,8.33
2019-03-06T23:50:19.379Z,8.07
2019-03-06T23:52:57.391Z,8.30
2019-03-06T23:55:47.226Z,9.47
2019-03-06T23:58:17.615Z,8.47
